sensor_id;sensor_type;location;lat;lon;timestamp;P1;durP1;ratioP1;P2;durP2;ratioP2
59306;SDS011;47983;53.016;-2.260;2024-01-30T00:02:06;44.53;;;14.48;;
59306;SDS011;47983;53.016;-2.260;2024-01-30T00:04:34;37.92;;;12.77;;
59306;SDS011;47983;53.016;-2.260;2024-01-30T00:07:02;38.53;;;12.38;;
59306;SDS011;47983;53.016;-2.260;2024-01-30T00:09:30;32.33;;;13.38;;
59306;SDS011;47983;53.016;-2.260;2024-01-30T00:11:58;42.65;;;12.95;;
59306;SDS011;47983;53.016;-2.260;2024-01-30T00:14:26;34.53;;;12.57;;
59306;SDS011;47983;53.016;-2.260;2024-01-30T00:16:54;39.83;;;12.88;;
59306;SDS011;47983;53.016;-2.260;2024-01-30T00:19:21;37.47;;;14.90;;
59306;SDS011;47983;53.016;-2.260;2024-01-30T00:21:49;51.60;;;14.85;;
59306;SDS011;47983;53.016;-2.260;2024-01-30T00:24:17;37.83;;;12.65;;
59306;SDS011;47983;53.016;-2.260;2024-01-30T00:26:44;45.42;;;13.73;;
59306;SDS011;47983;53.016;-2.260;2024-01-30T00:29:12;36.83;;;12.60;;
59306;SDS011;47983;53.016;-2.260;2024-01-30T00:31:46;44.67;;;12.85;;
59306;SDS011;47983;53.016;-2.260;2024-01-30T00:34:14;41.95;;;12.18;;
59306;SDS011;47983;53.016;-2.260;2024-01-30T00:36:42;37.38;;;12.15;;
59306;SDS011;47983;53.016;-2.260;2024-01-30T00:39:09;35.67;;;11.15;;
59306;SDS011;47983;53.016;-2.260;2024-01-30T00:41:39;36.80;;;12.17;;
59306;SDS011;47983;53.016;-2.260;2024-01-30T00:44:06;30.83;;;11.15;;
59306;SDS011;47983;53.016;-2.260;2024-01-30T00:46:34;45.00;;;11.80;;
59306;SDS011;47983;53.016;-2.260;2024-01-30T00:49:02;38.47;;;10.70;;
59306;SDS011;47983;53.016;-2.260;2024-01-30T00:51:30;33.08;;;10.57;;
59306;SDS011;47983;53.016;-2.260;2024-01-30T00:53:57;30.27;;;11.30;;
59306;SDS011;47983;53.016;-2.260;2024-01-30T00:56:25;32.13;;;10.80;;
59306;SDS011;47983;53.016;-2.260;2024-01-30T00:58:52;29.85;;;11.07;;
59306;SDS011;47983;53.016;-2.260;2024-01-30T01:01:20;29.77;;;12.50;;
59306;SDS011;47983;53.016;-2.260;2024-01-30T01:03:48;28.92;;;10.15;;
59306;SDS011;47983;53.016;-2.260;2024-01-30T01:06:16;13.27;;;6.30;;
59306;SDS011;47983;53.016;-2.260;2024-01-30T01:08:44;5.22;;;3.35;;
59306;SDS011;47983;53.016;-2.260;2024-01-30T01:11:11;2.05;;;1.70;;
59306;SDS011;47983;53.016;-2.260;2024-01-30T01:13:39;2.92;;;2.15;;
59306;SDS011;47983;53.016;-2.260;2024-01-30T01:16:07;3.00;;;2.03;;
59306;SDS011;47983;53.016;-2.260;2024-01-30T01:18:35;3.00;;;1.95;;
59306;SDS011;47983;53.016;-2.260;2024-01-30T01:21:03;2.58;;;1.90;;
59306;SDS011;47983;53.016;-2.260;2024-01-30T01:23:31;3.38;;;2.30;;
59306;SDS011;47983;53.016;-2.260;2024-01-30T01:25:59;4.25;;;2.22;;
59306;SDS011;47983;53.016;-2.260;2024-01-30T01:28:28;3.45;;;2.15;;
59306;SDS011;47983;53.016;-2.260;2024-01-30T01:30:55;2.13;;;1.77;;
59306;SDS011;47983;53.016;-2.260;2024-01-30T01:33:26;2.80;;;2.20;;
59306;SDS011;47983;53.016;-2.260;2024-01-30T01:35:54;3.53;;;2.25;;
59306;SDS011;47983;53.016;-2.260;2024-01-30T01:38:22;3.35;;;2.38;;
59306;SDS011;47983;53.016;-2.260;2024-01-30T01:40:49;3.92;;;2.50;;
59306;SDS011;47983;53.016;-2.260;2024-01-30T01:43:18;3.95;;;2.80;;
59306;SDS011;47983;53.016;-2.260;2024-01-30T01:45:46;4.28;;;2.97;;
59306;SDS011;47983;53.016;-2.260;2024-01-30T01:48:14;6.38;;;2.53;;
59306;SDS011;47983;53.016;-2.260;2024-01-30T01:50:42;4.90;;;3.15;;
59306;SDS011;47983;53.016;-2.260;2024-01-30T01:53:11;7.93;;;3.03;;
59306;SDS011;47983;53.016;-2.260;2024-01-30T01:55:40;4.82;;;3.40;;
59306;SDS011;47983;53.016;-2.260;2024-01-30T01:58:08;4.95;;;3.47;;
59306;SDS011;47983;53.016;-2.260;2024-01-30T02:03:10;5.80;;;3.60;;
59306;SDS011;47983;53.016;-2.260;2024-01-30T02:05:41;6.63;;;3.75;;
59306;SDS011;47983;53.016;-2.260;2024-01-30T02:08:09;5.15;;;3.20;;
59306;SDS011;47983;53.016;-2.260;2024-01-30T02:10:37;5.03;;;3.60;;
59306;SDS011;47983;53.016;-2.260;2024-01-30T02:13:05;4.93;;;3.33;;
59306;SDS011;47983;53.016;-2.260;2024-01-30T02:15:33;4.82;;;3.25;;
59306;SDS011;47983;53.016;-2.260;2024-01-30T02:18:00;3.70;;;2.67;;
59306;SDS011;47983;53.016;-2.260;2024-01-30T02:20:28;3.67;;;2.50;;
59306;SDS011;47983;53.016;-2.260;2024-01-30T02:22:58;2.90;;;2.25;;
59306;SDS011;47983;53.016;-2.260;2024-01-30T02:25:31;3.53;;;2.38;;
59306;SDS011;47983;53.016;-2.260;2024-01-30T02:28:05;2.88;;;2.33;;
59306;SDS011;47983;53.016;-2.260;2024-01-30T02:30:33;4.05;;;2.80;;
59306;SDS011;47983;53.016;-2.260;2024-01-30T02:33:01;2.78;;;2.28;;
59306;SDS011;47983;53.016;-2.260;2024-01-30T02:35:29;3.78;;;3.42;;
59306;SDS011;47983;53.016;-2.260;2024-01-30T02:37:56;3.45;;;3.05;;
59306;SDS011;47983;53.016;-2.260;2024-01-30T02:40:24;2.78;;;2.47;;
59306;SDS011;47983;53.016;-2.260;2024-01-30T02:42:51;3.05;;;2.17;;
59306;SDS011;47983;53.016;-2.260;2024-01-30T02:45:19;7.22;;;2.35;;
59306;SDS011;47983;53.016;-2.260;2024-01-30T02:47:47;3.92;;;2.22;;
59306;SDS011;47983;53.016;-2.260;2024-01-30T02:50:15;4.28;;;2.40;;
59306;SDS011;47983;53.016;-2.260;2024-01-30T02:52:43;4.60;;;2.13;;
59306;SDS011;47983;53.016;-2.260;2024-01-30T02:55:11;5.90;;;2.75;;
59306;SDS011;47983;53.016;-2.260;2024-01-30T02:57:39;6.30;;;2.45;;
59306;SDS011;47983;53.016;-2.260;2024-01-30T03:00:07;3.10;;;2.28;;
59306;SDS011;47983;53.016;-2.260;2024-01-30T03:02:36;5.53;;;3.08;;
59306;SDS011;47983;53.016;-2.260;2024-01-30T03:05:05;5.05;;;2.63;;
59306;SDS011;47983;53.016;-2.260;2024-01-30T03:07:33;8.30;;;3.30;;
59306;SDS011;47983;53.016;-2.260;2024-01-30T03:10:01;10.07;;;3.45;;
59306;SDS011;47983;53.016;-2.260;2024-01-30T03:12:29;9.52;;;2.70;;
59306;SDS011;47983;53.016;-2.260;2024-01-30T03:14:57;6.72;;;2.50;;
59306;SDS011;47983;53.016;-2.260;2024-01-30T03:17:24;5.97;;;2.40;;
59306;SDS011;47983;53.016;-2.260;2024-01-30T03:19:52;7.60;;;2.15;;
59306;SDS011;47983;53.016;-2.260;2024-01-30T03:22:19;12.50;;;2.88;;
59306;SDS011;47983;53.016;-2.260;2024-01-30T03:24:47;8.25;;;2.67;;
59306;SDS011;47983;53.016;-2.260;2024-01-30T03:27:15;6.90;;;2.42;;
59306;SDS011;47983;53.016;-2.260;2024-01-30T03:29:43;9.25;;;2.90;;
59306;SDS011;47983;53.016;-2.260;2024-01-30T03:32:10;13.57;;;3.17;;
59306;SDS011;47983;53.016;-2.260;2024-01-30T03:34:38;6.97;;;2.70;;
59306;SDS011;47983;53.016;-2.260;2024-01-30T03:37:06;6.80;;;2.60;;
59306;SDS011;47983;53.016;-2.260;2024-01-30T03:39:34;15.00;;;3.33;;
59306;SDS011;47983;53.016;-2.260;2024-01-30T03:42:03;10.13;;;2.80;;
59306;SDS011;47983;53.016;-2.260;2024-01-30T03:44:31;8.77;;;2.72;;
59306;SDS011;47983;53.016;-2.260;2024-01-30T03:46:58;8.95;;;3.20;;
59306;SDS011;47983;53.016;-2.260;2024-01-30T03:49:26;5.03;;;2.22;;
59306;SDS011;47983;53.016;-2.260;2024-01-30T03:51:54;10.50;;;3.05;;
59306;SDS011;47983;53.016;-2.260;2024-01-30T03:54:22;7.00;;;2.38;;
59306;SDS011;47983;53.016;-2.260;2024-01-30T03:56:49;10.32;;;2.50;;
59306;SDS011;47983;53.016;-2.260;2024-01-30T03:59:17;8.60;;;1.95;;
59306;SDS011;47983;53.016;-2.260;2024-01-30T04:01:49;4.93;;;2.13;;
59306;SDS011;47983;53.016;-2.260;2024-01-30T04:04:18;11.65;;;3.58;;
59306;SDS011;47983;53.016;-2.260;2024-01-30T04:06:46;6.03;;;1.90;;
59306;SDS011;47983;53.016;-2.260;2024-01-30T04:09:14;7.15;;;3.05;;
59306;SDS011;47983;53.016;-2.260;2024-01-30T04:11:42;6.88;;;1.42;;
59306;SDS011;47983;53.016;-2.260;2024-01-30T04:14:10;7.88;;;1.77;;
59306;SDS011;47983;53.016;-2.260;2024-01-30T04:16:38;8.85;;;1.88;;
59306;SDS011;47983;53.016;-2.260;2024-01-30T04:19:05;4.43;;;1.75;;
59306;SDS011;47983;53.016;-2.260;2024-01-30T04:21:33;8.80;;;2.00;;
59306;SDS011;47983;53.016;-2.260;2024-01-30T04:24:00;12.52;;;2.83;;
59306;SDS011;47983;53.016;-2.260;2024-01-30T04:26:28;9.68;;;2.13;;
59306;SDS011;47983;53.016;-2.260;2024-01-30T04:28:55;9.10;;;1.92;;
59306;SDS011;47983;53.016;-2.260;2024-01-30T04:31:23;10.75;;;2.42;;
59306;SDS011;47983;53.016;-2.260;2024-01-30T04:33:51;11.65;;;2.47;;
59306;SDS011;47983;53.016;-2.260;2024-01-30T04:36:19;6.03;;;1.80;;
59306;SDS011;47983;53.016;-2.260;2024-01-30T04:38:46;10.65;;;2.22;;
59306;SDS011;47983;53.016;-2.260;2024-01-30T04:41:14;8.55;;;1.98;;
59306;SDS011;47983;53.016;-2.260;2024-01-30T04:43:41;9.27;;;2.22;;
59306;SDS011;47983;53.016;-2.260;2024-01-30T04:46:09;12.50;;;3.20;;
59306;SDS011;47983;53.016;-2.260;2024-01-30T04:48:37;17.48;;;3.33;;
59306;SDS011;47983;53.016;-2.260;2024-01-30T04:51:05;21.90;;;4.65;;
59306;SDS011;47983;53.016;-2.260;2024-01-30T04:53:33;11.93;;;3.38;;
59306;SDS011;47983;53.016;-2.260;2024-01-30T04:56:01;9.73;;;4.63;;
59306;SDS011;47983;53.016;-2.260;2024-01-30T04:58:28;19.00;;;4.30;;
59306;SDS011;47983;53.016;-2.260;2024-01-30T05:00:56;13.05;;;2.70;;
59306;SDS011;47983;53.016;-2.260;2024-01-30T05:03:25;8.98;;;2.58;;
59306;SDS011;47983;53.016;-2.260;2024-01-30T05:05:52;13.45;;;4.72;;
59306;SDS011;47983;53.016;-2.260;2024-01-30T05:08:20;10.07;;;2.72;;
59306;SDS011;47983;53.016;-2.260;2024-01-30T05:10:48;10.25;;;2.53;;
59306;SDS011;47983;53.016;-2.260;2024-01-30T05:13:15;12.02;;;3.25;;
59306;SDS011;47983;53.016;-2.260;2024-01-30T05:15:43;9.13;;;2.13;;
59306;SDS011;47983;53.016;-2.260;2024-01-30T05:18:11;8.52;;;2.15;;
59306;SDS011;47983;53.016;-2.260;2024-01-30T05:20:38;7.15;;;2.42;;
59306;SDS011;47983;53.016;-2.260;2024-01-30T05:23:06;10.57;;;2.08;;
59306;SDS011;47983;53.016;-2.260;2024-01-30T05:25:34;4.30;;;1.60;;
59306;SDS011;47983;53.016;-2.260;2024-01-30T05:28:01;6.90;;;2.30;;
59306;SDS011;47983;53.016;-2.260;2024-01-30T05:30:29;3.10;;;1.13;;
59306;SDS011;47983;53.016;-2.260;2024-01-30T05:32:57;4.32;;;1.45;;
59306;SDS011;47983;53.016;-2.260;2024-01-30T05:35:25;3.35;;;1.33;;
59306;SDS011;47983;53.016;-2.260;2024-01-30T05:37:52;9.20;;;1.52;;
59306;SDS011;47983;53.016;-2.260;2024-01-30T05:40:20;5.88;;;1.52;;
59306;SDS011;47983;53.016;-2.260;2024-01-30T05:42:48;5.47;;;1.30;;
59306;SDS011;47983;53.016;-2.260;2024-01-30T05:45:15;6.18;;;1.05;;
59306;SDS011;47983;53.016;-2.260;2024-01-30T05:47:43;5.68;;;1.35;;
59306;SDS011;47983;53.016;-2.260;2024-01-30T05:50:11;8.75;;;1.58;;
59306;SDS011;47983;53.016;-2.260;2024-01-30T05:52:38;4.72;;;1.33;;
59306;SDS011;47983;53.016;-2.260;2024-01-30T05:55:06;8.93;;;1.88;;
59306;SDS011;47983;53.016;-2.260;2024-01-30T05:57:34;11.38;;;1.92;;
59306;SDS011;47983;53.016;-2.260;2024-01-30T06:00:03;5.93;;;0.85;;
59306;SDS011;47983;53.016;-2.260;2024-01-30T06:02:32;7.32;;;0.98;;
59306;SDS011;47983;53.016;-2.260;2024-01-30T06:05:00;5.47;;;1.10;;
59306;SDS011;47983;53.016;-2.260;2024-01-30T06:07:28;8.75;;;1.30;;
59306;SDS011;47983;53.016;-2.260;2024-01-30T06:10:01;8.45;;;0.63;;
59306;SDS011;47983;53.016;-2.260;2024-01-30T06:12:30;7.53;;;1.15;;
59306;SDS011;47983;53.016;-2.260;2024-01-30T06:14:58;5.72;;;1.17;;
59306;SDS011;47983;53.016;-2.260;2024-01-30T06:17:25;10.55;;;1.08;;
59306;SDS011;47983;53.016;-2.260;2024-01-30T06:19:53;8.38;;;1.00;;
59306;SDS011;47983;53.016;-2.260;2024-01-30T06:22:21;5.15;;;1.08;;
59306;SDS011;47983;53.016;-2.260;2024-01-30T06:24:49;3.30;;;0.85;;
59306;SDS011;47983;53.016;-2.260;2024-01-30T06:27:17;6.05;;;0.90;;
59306;SDS011;47983;53.016;-2.260;2024-01-30T06:29:45;4.07;;;1.35;;
59306;SDS011;47983;53.016;-2.260;2024-01-30T06:32:13;6.03;;;1.40;;
59306;SDS011;47983;53.016;-2.260;2024-01-30T06:34:41;3.65;;;0.90;;
59306;SDS011;47983;53.016;-2.260;2024-01-30T06:37:11;7.47;;;1.70;;
59306;SDS011;47983;53.016;-2.260;2024-01-30T06:39:39;3.55;;;1.05;;
59306;SDS011;47983;53.016;-2.260;2024-01-30T06:42:07;3.58;;;1.25;;
59306;SDS011;47983;53.016;-2.260;2024-01-30T06:44:34;12.32;;;2.95;;
59306;SDS011;47983;53.016;-2.260;2024-01-30T06:47:02;5.25;;;1.55;;
59306;SDS011;47983;53.016;-2.260;2024-01-30T06:49:30;5.30;;;1.50;;
59306;SDS011;47983;53.016;-2.260;2024-01-30T06:51:57;9.57;;;2.20;;
59306;SDS011;47983;53.016;-2.260;2024-01-30T06:54:25;6.30;;;2.17;;
59306;SDS011;47983;53.016;-2.260;2024-01-30T06:56:53;3.47;;;2.10;;
59306;SDS011;47983;53.016;-2.260;2024-01-30T06:59:20;14.15;;;2.65;;
59306;SDS011;47983;53.016;-2.260;2024-01-30T07:01:48;7.63;;;2.53;;
59306;SDS011;47983;53.016;-2.260;2024-01-30T07:04:16;10.45;;;2.47;;
59306;SDS011;47983;53.016;-2.260;2024-01-30T07:06:45;10.55;;;3.15;;
59306;SDS011;47983;53.016;-2.260;2024-01-30T07:09:13;13.43;;;3.38;;
59306;SDS011;47983;53.016;-2.260;2024-01-30T07:11:41;6.10;;;2.15;;
59306;SDS011;47983;53.016;-2.260;2024-01-30T07:14:09;13.43;;;3.13;;
59306;SDS011;47983;53.016;-2.260;2024-01-30T07:16:36;9.18;;;3.17;;
59306;SDS011;47983;53.016;-2.260;2024-01-30T07:19:04;16.60;;;5.50;;
59306;SDS011;47983;53.016;-2.260;2024-01-30T07:21:32;12.43;;;4.43;;
59306;SDS011;47983;53.016;-2.260;2024-01-30T07:23:59;14.05;;;6.03;;
59306;SDS011;47983;53.016;-2.260;2024-01-30T07:26:27;11.40;;;5.97;;
59306;SDS011;47983;53.016;-2.260;2024-01-30T07:28:57;14.40;;;5.63;;
59306;SDS011;47983;53.016;-2.260;2024-01-30T07:31:25;18.70;;;7.05;;
59306;SDS011;47983;53.016;-2.260;2024-01-30T07:33:56;15.75;;;6.22;;
59306;SDS011;47983;53.016;-2.260;2024-01-30T07:36:23;18.98;;;7.15;;
59306;SDS011;47983;53.016;-2.260;2024-01-30T07:38:51;18.50;;;5.43;;
59306;SDS011;47983;53.016;-2.260;2024-01-30T07:41:21;14.40;;;5.53;;
59306;SDS011;47983;53.016;-2.260;2024-01-30T07:43:50;12.13;;;5.88;;
59306;SDS011;47983;53.016;-2.260;2024-01-30T07:46:18;6.38;;;4.53;;
59306;SDS011;47983;53.016;-2.260;2024-01-30T07:48:45;9.90;;;4.43;;
59306;SDS011;47983;53.016;-2.260;2024-01-30T07:51:13;17.15;;;6.53;;
59306;SDS011;47983;53.016;-2.260;2024-01-30T07:53:41;15.35;;;4.97;;
59306;SDS011;47983;53.016;-2.260;2024-01-30T07:56:09;7.45;;;4.50;;
59306;SDS011;47983;53.016;-2.260;2024-01-30T07:58:37;14.35;;;7.18;;
59306;SDS011;47983;53.016;-2.260;2024-01-30T08:01:05;20.23;;;8.05;;
59306;SDS011;47983;53.016;-2.260;2024-01-30T08:03:32;14.88;;;7.88;;
59306;SDS011;47983;53.016;-2.260;2024-01-30T08:06:01;16.20;;;7.03;;
59306;SDS011;47983;53.016;-2.260;2024-01-30T08:08:29;8.75;;;4.80;;
59306;SDS011;47983;53.016;-2.260;2024-01-30T08:10:57;13.00;;;5.00;;
59306;SDS011;47983;53.016;-2.260;2024-01-30T08:13:24;12.52;;;4.78;;
59306;SDS011;47983;53.016;-2.260;2024-01-30T08:15:52;13.88;;;4.57;;
59306;SDS011;47983;53.016;-2.260;2024-01-30T08:18:20;12.30;;;5.25;;
59306;SDS011;47983;53.016;-2.260;2024-01-30T08:20:48;13.73;;;5.00;;
59306;SDS011;47983;53.016;-2.260;2024-01-30T08:23:16;7.78;;;3.80;;
59306;SDS011;47983;53.016;-2.260;2024-01-30T08:25:43;12.18;;;3.90;;
59306;SDS011;47983;53.016;-2.260;2024-01-30T08:28:11;10.35;;;3.80;;
59306;SDS011;47983;53.016;-2.260;2024-01-30T08:30:39;13.98;;;2.95;;
59306;SDS011;47983;53.016;-2.260;2024-01-30T08:33:07;7.30;;;2.28;;
59306;SDS011;47983;53.016;-2.260;2024-01-30T08:35:35;4.45;;;1.15;;
59306;SDS011;47983;53.016;-2.260;2024-01-30T08:38:02;11.27;;;1.92;;
59306;SDS011;47983;53.016;-2.260;2024-01-30T08:40:30;5.00;;;2.42;;
59306;SDS011;47983;53.016;-2.260;2024-01-30T08:42:58;7.20;;;2.80;;
59306;SDS011;47983;53.016;-2.260;2024-01-30T08:45:26;6.22;;;3.17;;
59306;SDS011;47983;53.016;-2.260;2024-01-30T08:47:54;10.25;;;4.28;;
59306;SDS011;47983;53.016;-2.260;2024-01-30T08:50:22;14.50;;;5.28;;
59306;SDS011;47983;53.016;-2.260;2024-01-30T08:52:52;16.15;;;5.82;;
59306;SDS011;47983;53.016;-2.260;2024-01-30T08:55:20;11.93;;;5.28;;
59306;SDS011;47983;53.016;-2.260;2024-01-30T08:57:48;10.90;;;5.88;;
59306;SDS011;47983;53.016;-2.260;2024-01-30T09:00:16;16.08;;;6.72;;
59306;SDS011;47983;53.016;-2.260;2024-01-30T09:02:43;16.30;;;7.80;;
59306;SDS011;47983;53.016;-2.260;2024-01-30T09:05:11;17.17;;;6.60;;
59306;SDS011;47983;53.016;-2.260;2024-01-30T09:07:39;16.42;;;6.18;;
59306;SDS011;47983;53.016;-2.260;2024-01-30T09:10:08;9.43;;;6.32;;
59306;SDS011;47983;53.016;-2.260;2024-01-30T09:12:40;8.45;;;5.40;;
59306;SDS011;47983;53.016;-2.260;2024-01-30T09:15:08;7.85;;;4.40;;
59306;SDS011;47983;53.016;-2.260;2024-01-30T09:17:36;5.97;;;3.25;;
59306;SDS011;47983;53.016;-2.260;2024-01-30T09:20:04;7.53;;;2.90;;
59306;SDS011;47983;53.016;-2.260;2024-01-30T09:22:33;3.53;;;2.33;;
59306;SDS011;47983;53.016;-2.260;2024-01-30T09:25:01;5.60;;;2.28;;
59306;SDS011;47983;53.016;-2.260;2024-01-30T09:27:29;4.38;;;2.33;;
59306;SDS011;47983;53.016;-2.260;2024-01-30T09:29:56;7.25;;;2.13;;
59306;SDS011;47983;53.016;-2.260;2024-01-30T09:32:24;6.45;;;2.10;;
59306;SDS011;47983;53.016;-2.260;2024-01-30T09:34:51;5.30;;;1.98;;
59306;SDS011;47983;53.016;-2.260;2024-01-30T09:37:19;8.27;;;2.63;;
59306;SDS011;47983;53.016;-2.260;2024-01-30T09:39:49;9.27;;;3.80;;
59306;SDS011;47983;53.016;-2.260;2024-01-30T09:42:28;5.50;;;2.30;;
59306;SDS011;47983;53.016;-2.260;2024-01-30T09:45:04;6.93;;;2.88;;
59306;SDS011;47983;53.016;-2.260;2024-01-30T09:47:36;11.23;;;3.00;;
59306;SDS011;47983;53.016;-2.260;2024-01-30T09:50:11;10.55;;;3.30;;
59306;SDS011;47983;53.016;-2.260;2024-01-30T09:52:40;5.63;;;2.20;;
59306;SDS011;47983;53.016;-2.260;2024-01-30T09:55:08;8.45;;;3.00;;
59306;SDS011;47983;53.016;-2.260;2024-01-30T09:57:36;13.77;;;3.40;;
59306;SDS011;47983;53.016;-2.260;2024-01-30T10:00:06;5.43;;;2.83;;
59306;SDS011;47983;53.016;-2.260;2024-01-30T10:02:39;4.22;;;1.98;;
59306;SDS011;47983;53.016;-2.260;2024-01-30T10:05:08;8.57;;;1.92;;
59306;SDS011;47983;53.016;-2.260;2024-01-30T10:07:36;6.05;;;2.80;;
59306;SDS011;47983;53.016;-2.260;2024-01-30T10:10:05;4.93;;;2.47;;
59306;SDS011;47983;53.016;-2.260;2024-01-30T10:12:34;5.93;;;2.10;;
59306;SDS011;47983;53.016;-2.260;2024-01-30T10:15:02;5.20;;;2.10;;
59306;SDS011;47983;53.016;-2.260;2024-01-30T10:17:30;7.50;;;2.30;;
59306;SDS011;47983;53.016;-2.260;2024-01-30T10:20:00;6.20;;;1.60;;
59306;SDS011;47983;53.016;-2.260;2024-01-30T10:22:32;6.55;;;2.70;;
59306;SDS011;47983;53.016;-2.260;2024-01-30T10:25:00;5.05;;;2.35;;
59306;SDS011;47983;53.016;-2.260;2024-01-30T10:27:32;5.38;;;2.20;;
59306;SDS011;47983;53.016;-2.260;2024-01-30T10:30:00;7.80;;;2.45;;
59306;SDS011;47983;53.016;-2.260;2024-01-30T10:32:29;5.88;;;2.40;;
59306;SDS011;47983;53.016;-2.260;2024-01-30T10:34:57;10.00;;;3.42;;
59306;SDS011;47983;53.016;-2.260;2024-01-30T10:37:25;4.50;;;2.75;;
59306;SDS011;47983;53.016;-2.260;2024-01-30T10:39:54;6.43;;;2.95;;
59306;SDS011;47983;53.016;-2.260;2024-01-30T10:42:26;7.72;;;2.50;;
59306;SDS011;47983;53.016;-2.260;2024-01-30T10:44:56;11.05;;;3.05;;
59306;SDS011;47983;53.016;-2.260;2024-01-30T10:47:29;4.45;;;2.42;;
59306;SDS011;47983;53.016;-2.260;2024-01-30T10:49:57;9.35;;;3.25;;
59306;SDS011;47983;53.016;-2.260;2024-01-30T10:52:25;4.63;;;2.67;;
59306;SDS011;47983;53.016;-2.260;2024-01-30T10:54:55;3.88;;;1.75;;
59306;SDS011;47983;53.016;-2.260;2024-01-30T10:57:26;4.03;;;1.85;;
59306;SDS011;47983;53.016;-2.260;2024-01-30T10:59:58;4.28;;;1.85;;
59306;SDS011;47983;53.016;-2.260;2024-01-30T11:02:29;4.80;;;2.10;;
59306;SDS011;47983;53.016;-2.260;2024-01-30T11:04:58;3.95;;;1.50;;
59306;SDS011;47983;53.016;-2.260;2024-01-30T11:07:28;6.55;;;1.70;;
59306;SDS011;47983;53.016;-2.260;2024-01-30T11:12:24;3.80;;;1.50;;
59306;SDS011;47983;53.016;-2.260;2024-01-30T11:15:06;4.65;;;1.90;;
59306;SDS011;47983;53.016;-2.260;2024-01-30T11:20:10;6.97;;;2.00;;
59306;SDS011;47983;53.016;-2.260;2024-01-30T11:22:40;7.75;;;1.92;;
59306;SDS011;47983;53.016;-2.260;2024-01-30T11:25:15;2.33;;;1.40;;
59306;SDS011;47983;53.016;-2.260;2024-01-30T11:27:44;1.90;;;1.58;;
59306;SDS011;47983;53.016;-2.260;2024-01-30T11:30:26;6.78;;;1.42;;
59306;SDS011;47983;53.016;-2.260;2024-01-30T11:35:37;3.30;;;1.65;;
59306;SDS011;47983;53.016;-2.260;2024-01-30T11:38:07;8.27;;;1.65;;
59306;SDS011;47983;53.016;-2.260;2024-01-30T11:40:37;4.40;;;1.50;;
59306;SDS011;47983;53.016;-2.260;2024-01-30T11:43:07;8.50;;;1.80;;
59306;SDS011;47983;53.016;-2.260;2024-01-30T11:45:36;4.15;;;1.80;;
59306;SDS011;47983;53.016;-2.260;2024-01-30T11:48:05;3.97;;;1.73;;
59306;SDS011;47983;53.016;-2.260;2024-01-30T11:50:35;4.55;;;1.67;;
59306;SDS011;47983;53.016;-2.260;2024-01-30T11:53:05;5.22;;;1.90;;
59306;SDS011;47983;53.016;-2.260;2024-01-30T11:55:33;6.75;;;2.22;;
59306;SDS011;47983;53.016;-2.260;2024-01-30T12:00:31;5.82;;;1.75;;
59306;SDS011;47983;53.016;-2.260;2024-01-30T12:03:01;2.42;;;1.95;;
59306;SDS011;47983;53.016;-2.260;2024-01-30T12:05:29;5.97;;;1.85;;
59306;SDS011;47983;53.016;-2.260;2024-01-30T12:07:57;4.30;;;1.70;;
59306;SDS011;47983;53.016;-2.260;2024-01-30T12:10:29;3.75;;;1.35;;
59306;SDS011;47983;53.016;-2.260;2024-01-30T12:12:57;4.22;;;1.77;;
59306;SDS011;47983;53.016;-2.260;2024-01-30T12:15:26;3.75;;;1.80;;
59306;SDS011;47983;53.016;-2.260;2024-01-30T12:18:03;4.93;;;1.52;;
59306;SDS011;47983;53.016;-2.260;2024-01-30T12:20:31;2.20;;;1.30;;
59306;SDS011;47983;53.016;-2.260;2024-01-30T12:22:59;2.95;;;1.25;;
59306;SDS011;47983;53.016;-2.260;2024-01-30T12:25:27;4.30;;;1.42;;
59306;SDS011;47983;53.016;-2.260;2024-01-30T12:27:55;3.45;;;1.60;;
59306;SDS011;47983;53.016;-2.260;2024-01-30T12:30:23;8.50;;;2.97;;
59306;SDS011;47983;53.016;-2.260;2024-01-30T12:32:50;4.68;;;1.60;;
59306;SDS011;47983;53.016;-2.260;2024-01-30T12:35:19;4.93;;;2.05;;
59306;SDS011;47983;53.016;-2.260;2024-01-30T12:37:48;5.57;;;2.05;;
59306;SDS011;47983;53.016;-2.260;2024-01-30T12:40:17;4.13;;;2.07;;
59306;SDS011;47983;53.016;-2.260;2024-01-30T12:42:46;4.78;;;2.42;;
59306;SDS011;47983;53.016;-2.260;2024-01-30T12:45:17;7.30;;;3.05;;
59306;SDS011;47983;53.016;-2.260;2024-01-30T12:47:49;5.15;;;2.40;;
59306;SDS011;47983;53.016;-2.260;2024-01-30T12:50:17;3.80;;;2.50;;
59306;SDS011;47983;53.016;-2.260;2024-01-30T12:52:46;4.03;;;2.00;;
59306;SDS011;47983;53.016;-2.260;2024-01-30T12:55:16;7.10;;;2.88;;
59306;SDS011;47983;53.016;-2.260;2024-01-30T12:57:45;6.50;;;3.58;;
59306;SDS011;47983;53.016;-2.260;2024-01-30T13:00:13;5.63;;;2.25;;
59306;SDS011;47983;53.016;-2.260;2024-01-30T13:02:41;7.00;;;2.72;;
59306;SDS011;47983;53.016;-2.260;2024-01-30T13:05:11;15.23;;;3.03;;
59306;SDS011;47983;53.016;-2.260;2024-01-30T13:07:40;8.85;;;2.03;;
59306;SDS011;47983;53.016;-2.260;2024-01-30T13:10:08;4.30;;;2.00;;
59306;SDS011;47983;53.016;-2.260;2024-01-30T13:12:35;5.40;;;1.90;;
59306;SDS011;47983;53.016;-2.260;2024-01-30T13:15:05;3.05;;;1.50;;
59306;SDS011;47983;53.016;-2.260;2024-01-30T13:17:33;4.15;;;1.60;;
59306;SDS011;47983;53.016;-2.260;2024-01-30T13:20:01;3.92;;;1.58;;
59306;SDS011;47983;53.016;-2.260;2024-01-30T13:22:38;3.92;;;1.75;;
59306;SDS011;47983;53.016;-2.260;2024-01-30T13:25:06;1.98;;;1.30;;
59306;SDS011;47983;53.016;-2.260;2024-01-30T13:27:37;3.97;;;1.23;;
59306;SDS011;47983;53.016;-2.260;2024-01-30T13:30:06;3.70;;;1.40;;
59306;SDS011;47983;53.016;-2.260;2024-01-30T13:32:36;4.20;;;1.40;;
59306;SDS011;47983;53.016;-2.260;2024-01-30T13:35:05;2.15;;;1.42;;
59306;SDS011;47983;53.016;-2.260;2024-01-30T13:37:32;6.18;;;1.70;;
59306;SDS011;47983;53.016;-2.260;2024-01-30T13:40:00;5.60;;;1.50;;
59306;SDS011;47983;53.016;-2.260;2024-01-30T13:42:33;5.93;;;1.50;;
59306;SDS011;47983;53.016;-2.260;2024-01-30T13:45:01;5.22;;;1.25;;
59306;SDS011;47983;53.016;-2.260;2024-01-30T13:47:28;3.42;;;1.15;;
59306;SDS011;47983;53.016;-2.260;2024-01-30T13:49:56;3.25;;;1.00;;
59306;SDS011;47983;53.016;-2.260;2024-01-30T13:52:24;1.48;;;0.70;;
59306;SDS011;47983;53.016;-2.260;2024-01-30T13:54:58;5.63;;;1.63;;
59306;SDS011;47983;53.016;-2.260;2024-01-30T13:57:26;3.78;;;1.05;;
59306;SDS011;47983;53.016;-2.260;2024-01-30T13:59:54;4.63;;;1.00;;
59306;SDS011;47983;53.016;-2.260;2024-01-30T14:02:21;4.30;;;1.13;;
59306;SDS011;47983;53.016;-2.260;2024-01-30T14:04:49;6.43;;;2.25;;
59306;SDS011;47983;53.016;-2.260;2024-01-30T14:07:17;5.82;;;1.63;;
59306;SDS011;47983;53.016;-2.260;2024-01-30T14:09:48;5.75;;;1.02;;
59306;SDS011;47983;53.016;-2.260;2024-01-30T14:12:16;4.43;;;1.00;;
59306;SDS011;47983;53.016;-2.260;2024-01-30T14:14:44;4.53;;;0.82;;
59306;SDS011;47983;53.016;-2.260;2024-01-30T14:17:12;2.95;;;1.02;;
59306;SDS011;47983;53.016;-2.260;2024-01-30T14:19:42;6.65;;;0.80;;
59306;SDS011;47983;53.016;-2.260;2024-01-30T14:22:10;8.15;;;1.23;;
59306;SDS011;47983;53.016;-2.260;2024-01-30T14:24:37;7.20;;;1.30;;
59306;SDS011;47983;53.016;-2.260;2024-01-30T14:27:05;3.88;;;0.70;;
59306;SDS011;47983;53.016;-2.260;2024-01-30T14:29:35;7.57;;;0.98;;
59306;SDS011;47983;53.016;-2.260;2024-01-30T14:32:03;16.05;;;2.28;;
59306;SDS011;47983;53.016;-2.260;2024-01-30T14:34:31;8.93;;;1.52;;
59306;SDS011;47983;53.016;-2.260;2024-01-30T14:36:59;5.55;;;1.30;;
59306;SDS011;47983;53.016;-2.260;2024-01-30T14:39:27;4.30;;;0.82;;
59306;SDS011;47983;53.016;-2.260;2024-01-30T14:41:54;5.25;;;1.00;;
59306;SDS011;47983;53.016;-2.260;2024-01-30T14:44:22;5.38;;;0.90;;
59306;SDS011;47983;53.016;-2.260;2024-01-30T14:46:50;3.53;;;0.80;;
59306;SDS011;47983;53.016;-2.260;2024-01-30T14:49:18;4.53;;;0.82;;
59306;SDS011;47983;53.016;-2.260;2024-01-30T14:51:46;3.97;;;0.82;;